createdAt,value
2019-01-24T00:00:39.411Z,45.83
2019-01-24T00:03:07.549Z,44.93
2019-01-24T00:05:35.693Z,40.27
2019-01-24T00:08:03.942Z,42.83
2019-01-24T00:10:32.091Z,45.37
2019-01-24T00:13:00.226Z,43.97
2019-01-24T00:15:28.406Z,43.47
2019-01-24T00:17:56.550Z,44.63
2019-01-24T00:20:24.702Z,45.03
2019-01-24T00:22:52.874Z,44.33
2019-01-24T00:25:21.018Z,47.33
2019-01-24T00:27:49.398Z,50.83
2019-01-24T00:30:17.573Z,41.87
2019-01-24T00:32:45.722Z,41.40
2019-01-24T00:35:13.867Z,41.77
2019-01-24T00:37:42.049Z,45.43
2019-01-24T00:40:17.057Z,45.40
2019-01-24T00:42:45.503Z,46.63
2019-01-24T00:45:13.718Z,44.80
2019-01-24T00:47:41.873Z,43.47
2019-01-24T00:50:11.230Z,47.53
2019-01-24T00:52:39.390Z,44.23
2019-01-24T00:55:09.276Z,47.93
2019-01-24T00:57:37.442Z,42.37
2019-01-24T01:00:07.211Z,46.43
2019-01-24T01:02:35.359Z,44.27
2019-01-24T01:05:04.501Z,45.77
2019-01-24T01:07:32.702Z,41.00
2019-01-24T01:10:00.850Z,46.70
2019-01-24T01:12:29.024Z,48.13
2019-01-24T01:14:57.172Z,44.73
2019-01-24T01:17:25.320Z,46.27
2019-01-24T01:19:53.491Z,42.70
2019-01-24T01:22:21.638Z,42.43
2019-01-24T01:24:49.789Z,49.07
2019-01-24T01:27:17.964Z,44.53
2019-01-24T01:29:46.107Z,44.63
2019-01-24T01:32:14.263Z,43.63
2019-01-24T01:37:28.551Z,45.33
2019-01-24T01:39:56.687Z,50.43
2019-01-24T01:42:24.824Z,45.93
2019-01-24T01:44:52.982Z,49.83
2019-01-24T01:47:21.120Z,49.27
2019-01-24T01:49:49.264Z,46.57
2019-01-24T01:52:17.544Z,49.47
2019-01-24T01:54:45.943Z,50.67
2019-01-24T01:57:14.071Z,48.67
2019-01-24T01:59:42.343Z,46.10
2019-01-24T02:02:10.555Z,47.40
2019-01-24T02:04:42.936Z,49.53
2019-01-24T02:07:09.623Z,50.23
2019-01-24T02:09:39.027Z,49.50
2019-01-24T02:12:07.169Z,47.60
2019-01-24T02:14:35.343Z,48.47
2019-01-24T02:17:03.575Z,48.33
2019-01-24T02:19:31.711Z,49.60
2019-01-24T02:21:59.868Z,49.70
2019-01-24T02:24:28.003Z,46.97
2019-01-24T02:26:56.151Z,49.17
2019-01-24T02:29:24.325Z,48.00
2019-01-24T02:31:52.457Z,48.67
2019-01-24T02:34:20.596Z,47.60
2019-01-24T02:36:48.880Z,50.33
2019-01-24T02:39:17.011Z,51.33
2019-01-24T02:41:45.148Z,50.87
2019-01-24T02:44:13.315Z,47.10
2019-01-24T02:46:41.456Z,52.97
2019-01-24T02:49:09.584Z,50.20
2019-01-24T02:51:38.024Z,52.63
2019-01-24T02:54:06.166Z,51.27
2019-01-24T02:56:34.290Z,45.47
2019-01-24T02:59:02.647Z,49.23
2019-01-24T03:01:31.063Z,56.20
2019-01-24T03:03:59.211Z,53.53
2019-01-24T03:06:27.484Z,54.13
2019-01-24T03:08:55.892Z,47.73
2019-01-24T03:11:24.027Z,48.90
2019-01-24T03:13:52.219Z,53.63
2019-01-24T03:16:20.359Z,53.17
2019-01-24T03:18:48.503Z,51.67
2019-01-24T03:21:16.661Z,49.50
2019-01-24T03:23:44.877Z,51.33
2019-01-24T03:26:13.003Z,49.30
2019-01-24T03:28:41.091Z,47.30
2019-01-24T03:31:09.233Z,54.53
2019-01-24T03:33:37.365Z,56.47
2019-01-24T03:36:05.524Z,49.33
2019-01-24T03:38:33.655Z,53.57
2019-01-24T03:41:01.800Z,52.63
2019-01-24T03:43:29.967Z,49.80
2019-01-24T03:45:58.106Z,51.43
2019-01-24T03:48:26.231Z,51.30
2019-01-24T03:50:54.395Z,52.53
2019-01-24T03:53:22.523Z,51.83
2019-01-24T03:55:50.656Z,49.67
2019-01-24T03:58:18.827Z,49.93
2019-01-24T04:00:46.963Z,52.17
2019-01-24T04:03:15.257Z,55.77
2019-01-24T04:05:43.413Z,49.93
2019-01-24T04:08:11.547Z,46.00
2019-01-24T04:10:39.690Z,50.87
2019-01-24T04:13:07.860Z,46.33
2019-01-24T04:15:36.239Z,54.80
2019-01-24T04:18:04.636Z,50.33
2019-01-24T04:20:32.801Z,50.40
2019-01-24T04:23:00.947Z,54.47
2019-01-24T04:25:29.078Z,54.50
2019-01-24T04:27:57.247Z,49.43
2019-01-24T04:30:25.583Z,57.13
2019-01-24T04:32:53.841Z,53.07
2019-01-24T04:35:22.119Z,47.87
2019-01-24T04:37:50.258Z,46.87
2019-01-24T04:40:18.955Z,59.20
2019-01-24T04:42:47.120Z,51.90
2019-01-24T04:45:16.033Z,52.30
2019-01-24T04:47:44.167Z,50.37
2019-01-24T04:50:15.873Z,52.00
2019-01-24T04:52:44.048Z,51.73
2019-01-24T04:55:13.252Z,53.73
2019-01-24T04:57:41.419Z,53.30
2019-01-24T05:00:11.180Z,55.23
2019-01-24T05:02:39.319Z,51.20
2019-01-24T05:05:07.481Z,50.43
2019-01-24T05:07:35.872Z,55.07
2019-01-24T05:10:05.673Z,57.53
2019-01-24T05:12:33.835Z,54.30
2019-01-24T05:15:01.976Z,53.73
2019-01-24T05:17:30.312Z,49.30
2019-01-24T05:19:58.487Z,54.37
2019-01-24T05:22:26.787Z,51.30
2019-01-24T05:24:54.879Z,52.57
2019-01-24T05:27:23.042Z,53.57
2019-01-24T05:29:51.179Z,53.27
2019-01-24T05:32:19.322Z,54.57
2019-01-24T05:34:47.485Z,53.20
2019-01-24T05:37:15.809Z,49.27
2019-01-24T05:39:43.947Z,52.80
2019-01-24T05:42:12.123Z,47.20
2019-01-24T05:44:40.251Z,51.20
2019-01-24T05:47:08.389Z,51.40
2019-01-24T05:49:36.548Z,48.97
2019-01-24T05:52:04.953Z,53.60
2019-01-24T05:54:33.103Z,51.07
2019-01-24T05:57:01.308Z,56.03
2019-01-24T05:59:29.445Z,53.83
2019-01-24T06:01:58.051Z,50.00
2019-01-24T06:04:26.222Z,48.33
2019-01-24T06:06:54.351Z,56.97
2019-01-24T06:09:22.490Z,51.93
2019-01-24T06:11:50.652Z,53.80
2019-01-24T06:14:21.129Z,47.60
2019-01-24T06:16:49.255Z,51.83
2019-01-24T06:19:17.683Z,56.07
2019-01-24T06:21:46.016Z,45.83
2019-01-24T06:24:14.154Z,54.27
2019-01-24T06:26:42.315Z,51.43
2019-01-24T06:29:10.452Z,53.70
2019-01-24T06:31:38.591Z,49.23
2019-01-24T06:34:07.748Z,55.28
2019-01-24T06:36:35.984Z,51.13
2019-01-24T06:39:05.755Z,48.23
2019-01-24T06:41:33.931Z,50.30
2019-01-24T06:44:02.005Z,49.07
2019-01-24T06:46:30.143Z,45.40
2019-01-24T06:48:58.310Z,47.13
2019-01-24T06:51:26.443Z,49.30
2019-01-24T06:53:59.037Z,49.53
2019-01-24T06:56:27.211Z,47.10
2019-01-24T06:58:55.352Z,50.03
2019-01-24T07:01:23.495Z,50.37
2019-01-24T07:03:51.695Z,47.90
2019-01-24T07:06:19.949Z,51.13
2019-01-24T07:08:48.287Z,49.83
2019-01-24T07:11:16.444Z,48.33
2019-01-24T07:13:44.756Z,50.90
2019-01-24T07:16:12.967Z,53.90
2019-01-24T07:18:41.423Z,52.03
2019-01-24T07:21:09.563Z,50.80
2019-01-24T07:23:37.715Z,45.30
2019-01-24T07:26:05.924Z,50.43
2019-01-24T07:28:34.121Z,49.50
2019-01-24T07:31:02.268Z,49.13
2019-01-24T07:33:30.436Z,55.43
2019-01-24T07:36:02.104Z,50.33
2019-01-24T07:38:28.370Z,50.40
2019-01-24T07:40:56.531Z,55.90
2019-01-24T07:43:24.672Z,55.00
2019-01-24T07:45:53.052Z,57.07
2019-01-24T07:48:21.218Z,49.23
2019-01-24T07:50:49.351Z,52.77
2019-01-24T07:53:17.491Z,50.83
2019-01-24T07:55:45.654Z,51.57
2019-01-24T07:58:13.798Z,51.60
2019-01-24T08:00:41.944Z,53.10
2019-01-24T08:03:10.111Z,60.57
2019-01-24T08:05:38.255Z,50.73
2019-01-24T08:08:06.388Z,49.90
2019-01-24T08:10:35.367Z,55.47
2019-01-24T08:13:03.672Z,54.63
2019-01-24T08:15:31.826Z,54.40
2019-01-24T08:17:59.992Z,51.27
2019-01-24T08:20:28.148Z,53.10
2019-01-24T08:22:56.263Z,50.40
2019-01-24T08:25:24.431Z,53.97
2019-01-24T08:27:53.700Z,48.57
2019-01-24T08:30:25.657Z,54.47
2019-01-24T08:32:53.827Z,49.40
2019-01-24T08:35:21.973Z,51.83
2019-01-24T08:37:50.106Z,51.33
2019-01-24T08:40:19.261Z,50.53
2019-01-24T08:42:47.391Z,49.27
2019-01-24T08:45:15.527Z,49.17
2019-01-24T08:47:43.690Z,48.87
2019-01-24T08:50:15.747Z,48.30
2019-01-24T08:52:43.892Z,55.27
2019-01-24T08:55:13.850Z,51.47
2019-01-24T08:57:41.983Z,48.20
2019-01-24T09:00:11.756Z,53.50
2019-01-24T09:02:39.953Z,47.83
2019-01-24T09:05:08.093Z,48.03
2019-01-24T09:07:36.227Z,47.70
2019-01-24T09:10:06.024Z,52.73
2019-01-24T09:12:34.293Z,43.40
2019-01-24T09:15:02.559Z,45.97
2019-01-24T09:17:30.720Z,46.87
2019-01-24T09:19:58.946Z,50.13
2019-01-24T09:22:27.067Z,48.30
2019-01-24T09:24:55.230Z,50.50
2019-01-24T09:27:23.364Z,55.87
2019-01-24T09:29:51.516Z,53.20
2019-01-24T09:32:19.672Z,52.80
2019-01-24T09:34:47.812Z,51.00
2019-01-24T09:37:15.939Z,48.33
2019-01-24T09:39:44.118Z,52.80
2019-01-24T09:42:12.252Z,54.80
2019-01-24T09:44:40.400Z,49.80
2019-01-24T09:47:08.575Z,50.03
2019-01-24T09:49:36.716Z,56.87
2019-01-24T09:52:04.860Z,52.67
2019-01-24T09:54:34.692Z,53.63
2019-01-24T09:57:02.846Z,55.70
2019-01-24T09:59:30.987Z,59.77
2019-01-24T10:01:59.160Z,56.97
2019-01-24T10:04:27.300Z,50.90
2019-01-24T10:06:55.439Z,57.55
2019-01-24T10:09:23.658Z,58.33
2019-01-24T10:11:51.909Z,50.17
2019-01-24T10:14:20.055Z,58.63
2019-01-24T10:16:48.226Z,55.80
2019-01-24T10:19:16.377Z,52.13
2019-01-24T10:21:44.516Z,44.10
2019-01-24T10:24:12.693Z,55.90
2019-01-24T10:26:40.833Z,49.37
2019-01-24T10:29:09.116Z,55.00
2019-01-24T10:31:37.404Z,46.10
2019-01-24T10:34:05.540Z,50.27
2019-01-24T10:36:33.683Z,53.17
2019-01-24T10:39:01.872Z,51.83
2019-01-24T10:41:30.013Z,51.43
2019-01-24T10:43:58.160Z,49.87
2019-01-24T10:46:26.315Z,48.80
2019-01-24T10:48:55.527Z,56.40
2019-01-24T10:51:23.710Z,47.47
2019-01-24T10:53:51.841Z,53.93
2019-01-24T10:56:19.983Z,51.70
2019-01-24T10:58:48.125Z,48.47
2019-01-24T11:01:17.524Z,48.47
2019-01-24T11:03:45.666Z,55.83
2019-01-24T11:06:13.808Z,54.17
2019-01-24T11:08:42.457Z,48.13
2019-01-24T11:11:10.597Z,45.30
2019-01-24T11:13:38.749Z,48.57
2019-01-24T11:16:06.920Z,48.73
2019-01-24T11:18:35.055Z,45.00
2019-01-24T11:21:03.195Z,48.77
2019-01-24T11:23:31.639Z,45.80
2019-01-24T11:25:59.798Z,49.73
2019-01-24T11:28:28.017Z,47.80
2019-01-24T11:30:56.216Z,47.00
2019-01-24T11:33:24.356Z,47.03
2019-01-24T11:35:52.508Z,49.47
2019-01-24T11:38:20.687Z,46.63
2019-01-24T11:40:49.206Z,48.13
2019-01-24T11:43:17.340Z,46.10
2019-01-24T11:45:45.880Z,49.90
2019-01-24T11:48:14.026Z,49.73
2019-01-24T11:50:42.215Z,55.60
2019-01-24T11:53:10.388Z,54.70
2019-01-24T11:55:39.003Z,51.07
2019-01-24T11:58:07.095Z,48.30
2019-01-24T12:00:37.975Z,49.90
2019-01-24T12:03:06.457Z,49.37
2019-01-24T12:05:34.596Z,56.17
2019-01-24T12:08:02.773Z,51.03
2019-01-24T12:10:30.923Z,51.10
2019-01-24T12:12:59.064Z,47.83
2019-01-24T12:15:28.410Z,50.60
2019-01-24T12:17:56.558Z,48.30
2019-01-24T12:20:25.180Z,48.87
2019-01-24T12:22:53.367Z,53.93
2019-01-24T12:25:21.618Z,48.17
2019-01-24T12:27:49.763Z,54.10
2019-01-24T12:30:25.615Z,54.40
2019-01-24T12:32:53.761Z,53.70
2019-01-24T12:35:21.900Z,48.40
2019-01-24T12:37:50.067Z,49.63
2019-01-24T12:40:20.745Z,49.83
2019-01-24T12:42:48.974Z,50.57
2019-01-24T12:45:18.781Z,55.50
2019-01-24T12:47:46.908Z,54.27
2019-01-24T12:50:16.260Z,53.83
2019-01-24T12:52:44.422Z,53.13
2019-01-24T12:55:12.927Z,54.03
2019-01-24T12:57:41.065Z,52.77
2019-01-24T13:00:10.873Z,57.50
2019-01-24T13:02:38.996Z,54.03
2019-01-24T13:05:08.607Z,58.13
2019-01-24T13:07:37.097Z,61.47
2019-01-24T13:10:06.881Z,57.10
2019-01-24T13:12:35.024Z,59.50
2019-01-24T13:15:03.963Z,61.53
2019-01-24T13:17:32.111Z,56.93
2019-01-24T13:20:00.380Z,59.33
2019-01-24T13:22:28.528Z,62.60
2019-01-24T13:24:56.661Z,60.43
2019-01-24T13:27:25.007Z,63.67
2019-01-24T13:29:53.300Z,54.37
2019-01-24T13:32:21.438Z,56.40
2019-01-24T13:34:49.576Z,67.72
2019-01-24T13:37:17.736Z,60.60
2019-01-24T13:39:46.045Z,57.00
2019-01-24T13:42:14.179Z,60.13
2019-01-24T13:44:42.335Z,66.80
2019-01-24T13:47:10.396Z,69.67
2019-01-24T13:49:38.603Z,62.57
2019-01-24T13:52:06.971Z,71.87
2019-01-24T13:54:35.323Z,68.27
2019-01-24T13:57:03.539Z,61.63
2019-01-24T13:59:31.715Z,62.10
2019-01-24T14:01:59.855Z,65.33
2019-01-24T14:04:27.987Z,69.90
2019-01-24T14:06:56.148Z,63.70
2019-01-24T14:09:24.297Z,62.93
2019-01-24T14:11:52.437Z,65.83
2019-01-24T14:14:20.610Z,67.17
2019-01-24T14:16:48.917Z,68.53
2019-01-24T14:19:18.025Z,60.07
2019-01-24T14:21:46.113Z,65.73
2019-01-24T14:24:14.256Z,70.23
2019-01-24T14:26:42.447Z,65.97
2019-01-24T14:29:10.611Z,64.77
2019-01-24T14:31:38.751Z,65.73
2019-01-24T14:34:06.891Z,67.20
2019-01-24T14:36:35.060Z,66.30
2019-01-24T14:39:04.632Z,68.00
2019-01-24T14:41:32.772Z,67.07
2019-01-24T14:44:00.931Z,64.40
2019-01-24T14:46:29.200Z,65.23
2019-01-24T14:48:57.331Z,64.97
2019-01-24T14:51:25.495Z,61.40
2019-01-24T14:53:53.627Z,64.90
2019-01-24T14:56:24.173Z,63.17
2019-01-24T14:58:52.260Z,64.83
2019-01-24T15:01:20.467Z,62.63
2019-01-24T15:03:48.600Z,63.10
2019-01-24T15:06:16.780Z,70.10
2019-01-24T15:08:44.915Z,68.50
2019-01-24T15:11:13.051Z,68.03
2019-01-24T15:13:41.348Z,65.87
2019-01-24T15:16:09.489Z,63.00
2019-01-24T15:18:37.639Z,66.93
2019-01-24T15:21:05.796Z,69.50
2019-01-24T15:23:33.928Z,66.27
2019-01-24T15:26:02.064Z,75.25
2019-01-24T15:28:30.236Z,73.17
2019-01-24T15:30:58.365Z,63.20
2019-01-24T15:33:26.512Z,59.73
2019-01-24T15:35:54.683Z,72.82
2019-01-24T15:38:22.820Z,64.00
2019-01-24T15:40:50.961Z,67.73
2019-01-24T15:43:19.128Z,67.90
2019-01-24T15:45:47.267Z,64.83
2019-01-24T15:48:15.406Z,66.60
2019-01-24T15:50:43.568Z,69.90
2019-01-24T15:53:11.703Z,73.23
2019-01-24T15:55:39.836Z,62.70
2019-01-24T15:58:08.305Z,66.43
2019-01-24T16:00:36.491Z,67.33
2019-01-24T16:03:04.645Z,72.17
2019-01-24T16:05:32.883Z,72.73
2019-01-24T16:08:01.852Z,63.90
2019-01-24T16:10:30.356Z,70.93
2019-01-24T16:12:58.519Z,67.23
2019-01-24T16:15:28.284Z,66.60
2019-01-24T16:17:56.419Z,74.20
2019-01-24T16:20:25.731Z,71.73
2019-01-24T16:22:53.872Z,72.97
2019-01-24T16:25:23.324Z,80.33
2019-01-24T16:27:51.483Z,71.37
2019-01-24T16:30:23.468Z,73.50
2019-01-24T16:32:51.612Z,74.33
2019-01-24T16:35:20.549Z,67.30
2019-01-24T16:37:48.680Z,74.03
2019-01-24T16:40:17.897Z,73.10
2019-01-24T16:42:46.071Z,68.67
2019-01-24T16:45:15.960Z,70.67
2019-01-24T16:47:44.088Z,75.80
2019-01-24T16:50:14.306Z,72.13
2019-01-24T16:52:42.619Z,75.17
2019-01-24T16:55:12.143Z,74.17
2019-01-24T16:57:40.319Z,74.70
2019-01-24T17:00:10.091Z,68.40
2019-01-24T17:02:38.212Z,75.33
2019-01-24T17:05:07.252Z,74.37
2019-01-24T17:07:35.388Z,70.13
2019-01-24T17:10:05.444Z,71.17
2019-01-24T17:12:33.611Z,73.30
2019-01-24T17:15:01.759Z,70.90
2019-01-24T17:17:29.895Z,71.90
2019-01-24T17:19:58.216Z,81.07
2019-01-24T17:22:26.483Z,72.53
2019-01-24T17:24:54.631Z,74.80
2019-01-24T17:27:23.036Z,69.90
2019-01-24T17:29:51.292Z,69.63
2019-01-24T17:32:19.431Z,74.03
2019-01-24T17:34:48.753Z,65.40
2019-01-24T17:37:16.888Z,72.60
2019-01-24T17:39:45.064Z,74.00
2019-01-24T17:42:13.197Z,77.57
2019-01-24T17:44:41.331Z,77.17
2019-01-24T17:47:09.723Z,80.00
2019-01-24T17:49:37.899Z,70.20
2019-01-24T17:52:06.052Z,73.70
2019-01-24T17:54:34.247Z,73.73
2019-01-24T17:57:02.417Z,74.50
2019-01-24T17:59:30.560Z,76.80
2019-01-24T18:01:58.701Z,76.07
2019-01-24T18:04:26.876Z,77.40
2019-01-24T18:06:55.007Z,80.70
2019-01-24T18:09:23.290Z,81.67
2019-01-24T18:11:51.457Z,75.23
2019-01-24T18:14:19.588Z,79.67
2019-01-24T18:16:47.769Z,91.73
2019-01-24T18:19:15.936Z,78.03
2019-01-24T18:21:44.075Z,88.20
2019-01-24T18:24:12.214Z,82.53
2019-01-24T18:26:40.447Z,82.60
2019-01-24T18:29:08.584Z,79.30
2019-01-24T18:31:36.716Z,75.40
2019-01-24T18:34:04.994Z,78.07
2019-01-24T18:36:33.128Z,78.73
2019-01-24T18:39:01.389Z,71.50
2019-01-24T18:41:29.564Z,80.75
2019-01-24T18:43:57.706Z,78.67
2019-01-24T18:46:25.835Z,78.13
2019-01-24T18:48:53.996Z,89.10
2019-01-24T18:51:22.159Z,80.30
2019-01-24T18:53:50.307Z,79.20
2019-01-24T18:56:18.489Z,79.80
2019-01-24T18:58:46.615Z,71.47
2019-01-24T19:01:14.748Z,71.50
2019-01-24T19:03:42.919Z,73.73
2019-01-24T19:06:10.984Z,75.67
2019-01-24T19:08:45.676Z,85.63
2019-01-24T19:11:09.292Z,76.23
2019-01-24T19:13:37.447Z,79.30
2019-01-24T19:16:05.630Z,76.53
2019-01-24T19:18:33.787Z,75.73
2019-01-24T19:21:01.928Z,81.33
2019-01-24T19:23:30.064Z,86.10
2019-01-24T19:25:58.230Z,78.53
2019-01-24T19:28:26.372Z,81.97
2019-01-24T19:30:54.511Z,78.93
2019-01-24T19:33:22.667Z,85.53
2019-01-24T19:35:50.811Z,79.17
2019-01-24T19:38:18.947Z,84.13
2019-01-24T19:40:47.325Z,85.33
2019-01-24T19:43:15.459Z,88.17
2019-01-24T19:45:44.115Z,81.33
2019-01-24T19:48:12.584Z,87.47
2019-01-24T19:50:41.113Z,78.93
2019-01-24T19:53:09.250Z,91.80
2019-01-24T19:55:37.806Z,82.17
2019-01-24T19:58:05.955Z,80.63
2019-01-24T20:00:34.090Z,86.77
2019-01-24T20:03:02.309Z,82.67
2019-01-24T20:05:30.447Z,85.67
2019-01-24T20:07:58.627Z,80.83
2019-01-24T20:10:27.692Z,79.97
2019-01-24T20:12:55.936Z,84.83
2019-01-24T20:15:25.066Z,84.93
2019-01-24T20:17:53.245Z,81.30
2019-01-24T20:20:21.410Z,78.70
2019-01-24T20:22:49.732Z,87.43
2019-01-24T20:25:18.933Z,80.57
2019-01-24T20:27:47.229Z,84.37
2019-01-24T20:30:16.628Z,83.80
2019-01-24T20:32:44.852Z,78.33
2019-01-24T20:35:14.803Z,84.53
2019-01-24T20:37:43.944Z,80.30
2019-01-24T20:40:13.188Z,76.20
2019-01-24T20:42:41.367Z,79.63
2019-01-24T20:45:11.183Z,83.20
2019-01-24T20:47:39.398Z,88.27
2019-01-24T20:50:09.230Z,76.53
2019-01-24T20:52:37.409Z,85.87
2019-01-24T20:55:07.093Z,75.47
2019-01-24T20:57:35.582Z,73.63
2019-01-24T21:00:05.409Z,75.13
2019-01-24T21:02:33.629Z,79.13
2019-01-24T21:05:01.824Z,81.27
2019-01-24T21:07:30.011Z,93.03
2019-01-24T21:09:58.232Z,82.87
2019-01-24T21:12:26.472Z,84.93
2019-01-24T21:14:54.630Z,81.97
2019-01-24T21:17:22.879Z,85.77
2019-01-24T21:19:51.303Z,88.73
2019-01-24T21:22:19.497Z,76.83
2019-01-24T21:24:48.114Z,80.50
2019-01-24T21:27:16.309Z,81.90
2019-01-24T21:29:44.494Z,90.30
2019-01-24T21:32:12.714Z,84.67
2019-01-24T21:34:40.898Z,87.53
2019-01-24T21:37:10.511Z,86.50
2019-01-24T21:39:39.038Z,79.50
2019-01-24T21:42:07.205Z,80.40
2019-01-24T21:44:35.397Z,88.97
2019-01-24T21:47:03.606Z,84.77
2019-01-24T21:49:32.273Z,82.37
2019-01-24T21:52:00.539Z,83.23
2019-01-24T21:54:28.772Z,81.47
2019-01-24T21:56:56.963Z,86.93
2019-01-24T21:59:25.147Z,88.73
2019-01-24T22:01:53.366Z,94.93
2019-01-24T22:04:21.563Z,101.03
2019-01-24T22:06:49.747Z,108.73
2019-01-24T22:09:17.995Z,104.33
2019-01-24T22:11:46.177Z,103.73
2019-01-24T22:14:14.410Z,109.30
2019-01-24T22:16:42.668Z,102.87
2019-01-24T22:19:10.981Z,99.17
2019-01-24T22:21:39.161Z,89.73
2019-01-24T22:24:07.374Z,92.67
2019-01-24T22:26:35.557Z,96.97
2019-01-24T22:29:03.743Z,97.23
2019-01-24T22:31:31.967Z,94.07
2019-01-24T22:34:00.147Z,88.00
2019-01-24T22:36:28.334Z,89.33
2019-01-24T22:38:56.547Z,91.77
2019-01-24T22:41:24.730Z,88.87
2019-01-24T22:43:52.909Z,97.70
2019-01-24T22:46:21.128Z,88.03
2019-01-24T22:48:49.378Z,85.57
2019-01-24T22:51:17.566Z,84.07
2019-01-24T22:53:45.778Z,85.37
2019-01-24T22:56:13.985Z,89.63
2019-01-24T22:58:42.321Z,89.57
2019-01-24T23:01:12.177Z,89.50
2019-01-24T23:03:41.522Z,84.77
2019-01-24T23:06:09.727Z,82.30
2019-01-24T23:08:37.942Z,101.27
2019-01-24T23:11:06.130Z,85.63
2019-01-24T23:13:34.578Z,91.60
2019-01-24T23:16:02.802Z,85.73
2019-01-24T23:18:30.985Z,84.53
2019-01-24T23:20:59.341Z,87.80
2019-01-24T23:23:27.554Z,86.43
2019-01-24T23:25:55.743Z,93.43
2019-01-24T23:28:23.925Z,84.83
2019-01-24T23:30:52.141Z,100.67
2019-01-24T23:33:20.330Z,89.00
2019-01-24T23:35:48.821Z,98.57
2019-01-24T23:38:17.041Z,101.30
2019-01-24T23:40:45.522Z,98.03
2019-01-24T23:43:13.714Z,103.23
2019-01-24T23:45:41.930Z,106.73
2019-01-24T23:48:10.115Z,104.40
2019-01-24T23:50:38.314Z,103.53
2019-01-24T23:53:06.528Z,109.70
2019-01-24T23:55:34.721Z,119.33
2019-01-24T23:58:02.913Z,110.93
